createdAt,value
2018-06-17T00:00:57.445Z,50.38
2018-06-17T00:03:26.209Z,50.84
2018-06-17T00:06:01.245Z,50.15
2018-06-17T00:08:30.289Z,50.53
2018-06-17T00:10:58.717Z,50.43
2018-06-17T00:13:27.182Z,50.87
2018-06-17T00:15:55.817Z,51.45
2018-06-17T00:18:24.261Z,52.00
2018-06-17T00:20:52.741Z,51.94
2018-06-17T00:23:21.835Z,52.48
2018-06-17T00:25:50.734Z,52.34
2018-06-17T00:28:19.258Z,52.53
2018-06-17T00:30:48.197Z,52.61
2018-06-17T00:33:16.985Z,52.23
2018-06-17T00:35:45.449Z,52.51
2018-06-17T00:38:14.245Z,52.22
2018-06-17T00:40:42.758Z,52.24
2018-06-17T00:43:11.317Z,52.22
2018-06-17T00:45:40.002Z,51.76
2018-06-17T00:48:08.442Z,52.18
2018-06-17T00:50:37.885Z,51.89
2018-06-17T00:53:06.331Z,52.02
2018-06-17T00:55:34.763Z,51.96
2018-06-17T00:58:03.823Z,51.74
2018-06-17T01:00:32.573Z,51.82
2018-06-17T01:03:01.005Z,51.40
2018-06-17T01:05:29.933Z,51.66
2018-06-17T01:07:58.605Z,51.91
2018-06-17T01:10:27.793Z,51.90
2018-06-17T01:12:56.363Z,52.03
2018-06-17T01:15:25.049Z,52.26
2018-06-17T01:17:53.468Z,52.56
2018-06-17T01:20:21.925Z,52.98
2018-06-17T01:22:51.454Z,53.14
2018-06-17T01:25:19.890Z,53.78
2018-06-17T01:27:48.334Z,54.00
2018-06-17T01:30:17.367Z,54.72
2018-06-17T01:32:46.058Z,54.83
2018-06-17T01:35:14.520Z,55.21
2018-06-17T01:37:43.165Z,55.11
2018-06-17T01:40:11.678Z,55.46
2018-06-17T01:42:40.115Z,55.78
2018-06-17T01:45:09.053Z,55.87
2018-06-17T01:47:37.469Z,55.50
2018-06-17T01:50:06.022Z,55.71
2018-06-17T01:52:34.478Z,55.75
2018-06-17T01:55:03.149Z,55.65
2018-06-17T01:57:31.594Z,55.47
2018-06-17T02:00:00.282Z,55.64
2018-06-17T02:02:28.791Z,55.17
2018-06-17T02:05:02.638Z,55.26
2018-06-17T02:07:36.277Z,55.43
2018-06-17T02:10:10.688Z,55.20
2018-06-17T02:12:40.221Z,55.65
2018-06-17T02:15:08.662Z,55.82
2018-06-17T02:17:37.113Z,55.56
2018-06-17T02:20:05.622Z,55.30
2018-06-17T02:22:34.057Z,55.56
2018-06-17T02:25:02.573Z,55.12
2018-06-17T02:27:31.853Z,55.13
2018-06-17T02:30:01.110Z,55.10
2018-06-17T02:32:29.533Z,54.97
2018-06-17T02:34:58.186Z,55.39
2018-06-17T02:37:26.954Z,54.81
2018-06-17T02:39:55.913Z,54.78
2018-06-17T02:42:24.595Z,55.19
2018-06-17T02:44:58.522Z,54.97
2018-06-17T02:47:32.328Z,55.38
2018-06-17T02:50:06.150Z,55.31
2018-06-17T02:52:39.873Z,55.43
2018-06-17T02:55:08.615Z,55.50
2018-06-17T02:57:37.148Z,56.19
2018-06-17T03:00:05.645Z,56.38
2018-06-17T03:02:34.684Z,56.06
2018-06-17T03:05:03.225Z,56.71
2018-06-17T03:07:31.684Z,56.63
2018-06-17T03:10:00.444Z,57.15
2018-06-17T03:12:29.445Z,57.01
2018-06-17T03:14:57.953Z,57.02
2018-06-17T03:17:26.993Z,56.94
2018-06-17T03:19:58.647Z,57.34
2018-06-17T03:22:27.150Z,56.81
2018-06-17T03:25:01.189Z,57.23
2018-06-17T03:27:34.805Z,56.69
2018-06-17T03:30:08.525Z,56.68
2018-06-17T03:32:42.185Z,56.37
2018-06-17T03:35:16.102Z,56.45
2018-06-17T03:37:44.723Z,56.05
2018-06-17T03:40:13.473Z,55.78
2018-06-17T03:42:41.903Z,55.63
2018-06-17T03:45:10.356Z,55.80
2018-06-17T03:47:39.241Z,55.75
2018-06-17T03:50:07.773Z,55.85
2018-06-17T03:52:36.280Z,55.81
2018-06-17T03:55:04.877Z,56.12
2018-06-17T03:57:33.710Z,56.29
2018-06-17T04:00:03.482Z,56.33
2018-06-17T04:02:34.213Z,56.25
2018-06-17T04:05:07.935Z,56.13
2018-06-17T04:07:36.933Z,56.39
2018-06-17T04:10:05.697Z,55.97
2018-06-17T04:12:35.109Z,56.27
2018-06-17T04:15:04.019Z,56.86
2018-06-17T04:17:32.509Z,56.71
2018-06-17T04:20:01.430Z,57.03
2018-06-17T04:22:29.903Z,56.90
2018-06-17T04:24:58.321Z,56.91
2018-06-17T04:27:26.816Z,57.29
2018-06-17T04:29:55.727Z,57.54
2018-06-17T04:32:24.162Z,57.85
2018-06-17T04:34:53.877Z,58.20
2018-06-17T04:37:22.534Z,58.57
2018-06-17T04:39:51.245Z,58.90
2018-06-17T04:42:19.661Z,59.22
2018-06-17T04:44:48.582Z,59.67
2018-06-17T04:47:17.242Z,59.83
2018-06-17T04:49:45.678Z,59.67
2018-06-17T04:52:14.230Z,60.04
2018-06-17T04:54:42.941Z,60.11
2018-06-17T04:57:11.653Z,60.62
2018-06-17T04:59:40.217Z,60.86
2018-06-17T05:02:08.729Z,61.21
2018-06-17T05:04:37.453Z,61.79
2018-06-17T05:07:06.333Z,61.31
2018-06-17T05:09:34.761Z,61.11
2018-06-17T05:12:03.565Z,61.38
2018-06-17T05:14:32.275Z,60.73
2018-06-17T05:17:00.868Z,60.58
2018-06-17T05:19:29.521Z,60.80
2018-06-17T05:21:58.269Z,60.94
2018-06-17T05:24:26.720Z,60.62
2018-06-17T05:26:55.154Z,60.67
2018-06-17T05:29:23.893Z,60.54
2018-06-17T05:31:52.501Z,60.12
2018-06-17T05:34:20.957Z,59.22
2018-06-17T05:36:49.741Z,59.12
2018-06-17T05:39:18.407Z,58.29
2018-06-17T05:41:46.873Z,58.24
2018-06-17T05:44:15.317Z,58.22
2018-06-17T05:46:43.833Z,58.13
2018-06-17T05:49:12.273Z,58.08
2018-06-17T05:51:40.740Z,58.18
2018-06-17T05:54:09.598Z,58.29
2018-06-17T05:56:38.063Z,57.58
2018-06-17T05:59:06.548Z,57.77
2018-06-17T06:01:35.057Z,57.14
2018-06-17T06:04:03.620Z,56.77
2018-06-17T06:06:32.026Z,56.26
2018-06-17T06:09:00.530Z,56.13
2018-06-17T06:11:29.090Z,55.38
2018-06-17T06:13:57.561Z,54.67
2018-06-17T06:16:26.413Z,53.33
2018-06-17T06:18:55.058Z,52.91
2018-06-17T06:21:23.820Z,51.87
2018-06-17T06:23:52.245Z,51.63
2018-06-17T06:26:20.695Z,50.67
2018-06-17T06:28:49.370Z,49.75
2018-06-17T06:31:17.850Z,49.84
2018-06-17T06:33:47.194Z,49.85
2018-06-17T06:36:16.614Z,49.41
2018-06-17T06:38:45.030Z,49.49
2018-06-17T06:41:13.445Z,48.94
2018-06-17T06:43:42.117Z,48.99
2018-06-17T06:46:10.762Z,49.07
2018-06-17T06:48:39.206Z,49.02
2018-06-17T06:51:07.885Z,49.08
2018-06-17T06:53:36.511Z,49.17
2018-06-17T06:56:05.354Z,49.19
2018-06-17T06:58:33.830Z,49.66
2018-06-17T07:01:02.567Z,49.60
2018-06-17T07:03:42.443Z,49.44
2018-06-17T07:06:22.199Z,49.49
2018-06-17T07:09:02.355Z,49.12
2018-06-17T07:11:31.082Z,48.92
2018-06-17T07:13:59.691Z,49.13
2018-06-17T07:16:40.820Z,49.13
2018-06-17T07:19:09.623Z,49.14
2018-06-17T07:21:38.109Z,49.04
2018-06-17T07:24:07.941Z,48.98
2018-06-17T07:26:52.893Z,48.75
2018-06-17T07:29:36.950Z,48.36
2018-06-17T07:32:05.730Z,48.16
2018-06-17T07:34:34.645Z,48.35
2018-06-17T07:37:03.390Z,48.50
2018-06-17T07:41:40.149Z,47.99
2018-06-17T07:44:08.745Z,47.92
2018-06-17T07:46:37.241Z,46.23
2018-06-17T07:49:47.717Z,45.33
2018-06-17T07:52:28.547Z,42.93
2018-06-17T07:54:57.906Z,40.57
2018-06-17T07:57:27.607Z,39.08
2018-06-17T07:59:56.147Z,39.28
2018-06-17T08:02:25.329Z,37.42
2018-06-17T08:04:53.902Z,36.05
2018-06-17T08:07:22.541Z,35.25
2018-06-17T08:09:51.043Z,34.34
2018-06-17T08:12:19.571Z,34.55
2018-06-17T08:14:47.981Z,33.52
2018-06-17T08:17:16.597Z,33.29
2018-06-17T08:19:45.185Z,33.12
2018-06-17T08:22:13.860Z,32.60
2018-06-17T08:24:42.969Z,33.17
2018-06-17T08:27:11.390Z,32.19
2018-06-17T08:29:39.985Z,32.91
2018-06-17T08:32:08.437Z,32.83
2018-06-17T08:34:36.867Z,32.51
2018-06-17T08:37:05.897Z,32.14
2018-06-17T08:39:34.361Z,32.43
2018-06-17T08:42:02.774Z,31.69
2018-06-17T08:44:31.409Z,31.87
2018-06-17T08:47:00.528Z,32.39
2018-06-17T08:49:29.029Z,32.52
2018-06-17T08:51:57.777Z,32.15
2018-06-17T08:54:26.489Z,32.43
2018-06-17T08:56:54.934Z,32.74
2018-06-17T08:59:23.392Z,32.87
2018-06-17T09:01:52.032Z,31.94
2018-06-17T09:04:20.450Z,32.64
2018-06-17T09:06:48.865Z,32.29
2018-06-17T09:09:17.549Z,32.09
2018-06-17T09:11:46.201Z,32.08
2018-06-17T09:14:14.633Z,32.51
2018-06-17T09:16:43.097Z,32.47
2018-06-17T09:19:12.065Z,30.52
2018-06-17T09:21:40.918Z,30.34
2018-06-17T09:24:09.391Z,29.15
2018-06-17T09:26:38.171Z,30.51
2018-06-17T09:29:06.605Z,30.49
2018-06-17T09:31:35.174Z,30.98
2018-06-17T09:34:03.636Z,31.08
2018-06-17T09:36:33.046Z,31.57
2018-06-17T09:39:02.510Z,32.29
2018-06-17T09:41:31.306Z,31.68
2018-06-17T09:44:00.405Z,32.35
2018-06-17T09:46:29.143Z,32.91
2018-06-17T09:48:57.563Z,32.41
2018-06-17T09:51:26.232Z,31.63
2018-06-17T09:53:54.830Z,32.43
2018-06-17T09:56:23.257Z,31.27
2018-06-17T09:58:51.782Z,32.11
2018-06-17T10:01:20.589Z,31.98
2018-06-17T10:03:49.661Z,32.51
2018-06-17T10:06:18.092Z,31.40
2018-06-17T10:08:47.038Z,32.31
2018-06-17T10:11:15.470Z,31.75
2018-06-17T10:13:44.941Z,30.40
2018-06-17T10:16:15.080Z,30.47
2018-06-17T10:18:43.757Z,29.66
2018-06-17T10:21:12.338Z,28.68
2018-06-17T10:23:41.753Z,29.39
2018-06-17T10:26:10.225Z,29.00
2018-06-17T10:28:38.693Z,29.36
2018-06-17T10:31:08.021Z,28.55
2018-06-17T10:33:37.109Z,29.30
2018-06-17T10:36:05.705Z,29.67
2018-06-17T10:38:34.308Z,28.39
2018-06-17T10:41:03.698Z,27.87
2018-06-17T10:43:33.497Z,28.72
2018-06-17T10:46:02.551Z,29.03
2018-06-17T10:48:31.273Z,28.07
2018-06-17T10:50:59.705Z,28.33
2018-06-17T10:53:28.483Z,28.85
2018-06-17T10:55:57.405Z,27.78
2018-06-17T10:58:25.799Z,28.57
2018-06-17T11:00:54.869Z,27.87
2018-06-17T11:03:23.329Z,26.97
2018-06-17T11:05:52.054Z,28.19
2018-06-17T11:08:20.936Z,27.77
2018-06-17T11:10:50.411Z,28.28
2018-06-17T11:13:18.906Z,28.85
2018-06-17T11:15:47.419Z,28.85
2018-06-17T11:18:15.920Z,28.53
2018-06-17T11:20:44.430Z,30.01
2018-06-17T11:23:13.345Z,29.36
2018-06-17T11:25:42.243Z,29.91
2018-06-17T11:28:10.685Z,29.63
2018-06-17T11:30:39.456Z,29.17
2018-06-17T11:33:07.953Z,29.03
2018-06-17T11:35:36.829Z,30.46
2018-06-17T11:38:05.853Z,30.63
2018-06-17T11:40:34.381Z,30.61
2018-06-17T11:43:02.803Z,31.86
2018-06-17T11:45:31.836Z,31.50
2018-06-17T11:48:01.629Z,32.12
2018-06-17T11:50:30.061Z,32.61
2018-06-17T11:52:58.885Z,32.48
2018-06-17T11:55:27.478Z,32.94
2018-06-17T11:57:55.897Z,33.98
2018-06-17T12:00:24.611Z,35.01
2018-06-17T12:02:53.300Z,35.75
2018-06-17T12:05:21.722Z,36.39
2018-06-17T12:07:50.671Z,37.31
2018-06-17T12:10:19.213Z,37.94
2018-06-17T12:12:48.033Z,37.87
2018-06-17T12:15:16.733Z,38.55
2018-06-17T12:17:45.203Z,37.71
2018-06-17T12:20:13.770Z,37.34
2018-06-17T12:22:42.778Z,35.90
2018-06-17T12:25:11.349Z,35.67
2018-06-17T12:27:40.670Z,35.70
2018-06-17T12:30:09.342Z,35.14
2018-06-17T12:32:37.754Z,35.58
2018-06-17T12:35:06.213Z,35.07
2018-06-17T12:37:34.901Z,35.18
2018-06-17T12:40:03.427Z,34.67
2018-06-17T12:42:31.906Z,34.69
2018-06-17T12:45:00.629Z,34.83
2018-06-17T12:47:29.130Z,34.53
2018-06-17T12:49:57.550Z,35.46
2018-06-17T12:52:26.301Z,35.84
2018-06-17T12:54:55.425Z,34.15
2018-06-17T12:57:24.623Z,34.09
2018-06-17T12:59:53.292Z,33.44
2018-06-17T13:02:21.857Z,34.06
2018-06-17T13:04:50.277Z,34.66
2018-06-17T13:07:19.029Z,34.68
2018-06-17T13:09:47.829Z,35.42
2018-06-17T13:12:16.257Z,35.79
2018-06-17T13:14:44.789Z,35.84
2018-06-17T13:17:13.297Z,36.78
2018-06-17T13:19:41.845Z,36.48
2018-06-17T13:22:10.389Z,37.26
2018-06-17T13:24:38.805Z,37.23
2018-06-17T13:27:07.486Z,38.02
2018-06-17T13:29:36.205Z,37.89
2018-06-17T13:32:04.694Z,38.24
2018-06-17T13:34:34.341Z,38.87
2018-06-17T13:37:02.942Z,38.87
2018-06-17T13:39:32.321Z,39.11
2018-06-17T13:42:00.842Z,39.67
2018-06-17T13:44:30.101Z,39.90
2018-06-17T13:46:58.533Z,39.55
2018-06-17T13:49:26.976Z,40.16
2018-06-17T13:51:55.969Z,40.81
2018-06-17T13:54:24.476Z,41.31
2018-06-17T13:56:52.905Z,40.89
2018-06-17T13:59:21.469Z,41.11
2018-06-17T14:01:50.192Z,41.25
2018-06-17T14:04:18.617Z,41.42
2018-06-17T14:06:47.493Z,41.27
2018-06-17T14:09:16.026Z,41.78
2018-06-17T14:11:44.950Z,41.41
2018-06-17T14:14:14.264Z,41.69
2018-06-17T14:16:43.753Z,42.49
2018-06-17T14:19:12.182Z,42.57
2018-06-17T14:21:40.908Z,42.52
2018-06-17T14:24:09.333Z,42.92
2018-06-17T14:26:37.973Z,43.00
2018-06-17T14:29:07.466Z,43.07
2018-06-17T14:31:36.106Z,42.99
2018-06-17T14:34:04.642Z,43.30
2018-06-17T14:36:33.538Z,43.59
2018-06-17T14:39:03.057Z,43.82
2018-06-17T14:41:31.541Z,43.82
2018-06-17T14:44:05.439Z,44.07
2018-06-17T14:46:38.946Z,44.45
2018-06-17T14:49:12.585Z,44.35
2018-06-17T14:51:46.254Z,44.68
2018-06-17T14:54:15.226Z,44.22
2018-06-17T14:56:49.890Z,45.11
2018-06-17T14:59:18.862Z,45.64
2018-06-17T15:01:47.303Z,46.01
2018-06-17T15:04:15.720Z,46.56
2018-06-17T15:06:44.366Z,46.90
2018-06-17T15:09:12.954Z,48.07
2018-06-17T15:11:41.380Z,48.54
2018-06-17T15:14:10.086Z,49.10
2018-06-17T15:16:38.725Z,49.59
2018-06-17T15:19:07.950Z,50.46
2018-06-17T15:21:36.413Z,50.89
2018-06-17T15:24:05.147Z,51.50
2018-06-17T15:26:33.658Z,52.11
2018-06-17T15:29:02.779Z,52.44
2018-06-17T15:31:36.873Z,52.79
2018-06-17T15:36:17.340Z,53.07
2018-06-17T15:38:53.513Z,53.26
2018-06-17T15:41:28.030Z,55.00
2018-06-17T15:43:58.033Z,55.46
2018-06-17T15:46:27.377Z,55.63
2018-06-17T15:48:55.973Z,55.65
2018-06-17T15:51:24.411Z,56.64
2018-06-17T15:53:52.851Z,57.59
2018-06-17T15:56:21.710Z,58.85
2018-06-17T15:58:50.132Z,59.60
2018-06-17T16:01:18.566Z,59.59
2018-06-17T16:03:47.717Z,60.57
2018-06-17T16:06:16.310Z,61.69
2018-06-17T16:08:44.816Z,61.87
2018-06-17T16:11:13.297Z,62.03
2018-06-17T16:13:46.972Z,63.35
2018-06-17T16:16:20.509Z,63.56
2018-06-17T16:18:54.090Z,63.10
2018-06-17T16:21:22.741Z,63.75
2018-06-17T16:23:51.190Z,64.19
2018-06-17T16:26:19.677Z,64.28
2018-06-17T16:28:48.527Z,64.77
2018-06-17T16:31:16.957Z,65.15
2018-06-17T16:33:45.546Z,65.90
2018-06-17T16:36:14.098Z,66.50
2018-06-17T16:38:42.630Z,67.03
2018-06-17T16:41:11.057Z,67.58
2018-06-17T16:43:39.653Z,66.93
2018-06-17T16:46:08.589Z,65.42
2018-06-17T16:48:37.418Z,64.58
2018-06-17T16:51:10.978Z,62.69
2018-06-17T16:53:44.621Z,62.06
2018-06-17T16:56:18.289Z,61.61
2018-06-17T16:58:52.237Z,61.28
2018-06-17T17:01:20.825Z,61.87
2018-06-17T17:03:50.437Z,62.45
2018-06-17T17:06:18.856Z,63.25
2018-06-17T17:08:47.521Z,63.94
2018-06-17T17:11:15.936Z,63.96
2018-06-17T17:13:44.377Z,63.81
2018-06-17T17:16:13.392Z,64.16
2018-06-17T17:18:41.825Z,64.37
2018-06-17T17:21:10.256Z,64.96
2018-06-17T17:23:39.459Z,65.58
2018-06-17T17:26:07.893Z,65.23
2018-06-17T17:28:36.325Z,66.22
2018-06-17T17:31:05.041Z,66.25
2018-06-17T17:33:38.777Z,67.00
2018-06-17T17:38:17.384Z,67.51
2018-06-17T17:40:49.490Z,66.48
2018-06-17T17:43:18.082Z,67.00
2018-06-17T17:45:52.038Z,67.37
2018-06-17T17:48:20.598Z,67.42
2018-06-17T17:50:49.449Z,67.82
2018-06-17T17:53:17.878Z,67.06
2018-06-17T17:55:47.286Z,67.23
2018-06-17T17:58:15.809Z,66.89
2018-06-17T18:00:44.249Z,66.54
2018-06-17T18:03:13.175Z,66.47
2018-06-17T18:05:41.633Z,66.84
2018-06-17T18:08:10.625Z,67.14
2018-06-17T18:10:39.555Z,66.91
2018-06-17T18:13:08.062Z,66.80
2018-06-17T18:15:36.489Z,66.95
2018-06-17T18:18:05.073Z,67.41
2018-06-17T18:20:33.683Z,67.06
2018-06-17T18:23:02.153Z,67.21
2018-06-17T18:25:35.782Z,67.96
2018-06-17T18:28:09.667Z,68.51
2018-06-17T18:30:43.810Z,69.71
2018-06-17T18:33:17.658Z,70.75
2018-06-17T18:35:51.350Z,71.51
2018-06-17T18:38:20.022Z,72.05
2018-06-17T18:40:48.473Z,73.00
2018-06-17T18:43:17.025Z,72.94
2018-06-17T18:45:45.467Z,73.57
2018-06-17T18:48:14.006Z,72.85
2018-06-17T18:50:43.029Z,73.16
2018-06-17T18:53:11.598Z,73.43
2018-06-17T18:55:40.058Z,73.65
2018-06-17T18:58:08.877Z,73.90
2018-06-17T19:00:37.520Z,74.40
2018-06-17T19:03:05.947Z,74.47
2018-06-17T19:05:34.426Z,74.35
2018-06-17T19:08:03.409Z,74.81
2018-06-17T19:10:38.057Z,74.62
2018-06-17T19:13:11.846Z,75.00
2018-06-17T19:15:45.954Z,74.89
2018-06-17T19:18:14.746Z,75.15
2018-06-17T19:20:43.191Z,75.09
2018-06-17T19:23:12.033Z,75.11
2018-06-17T19:25:40.953Z,75.47
2018-06-17T19:28:09.669Z,75.55
2018-06-17T19:30:38.230Z,75.42
2018-06-17T19:33:06.741Z,76.08
2018-06-17T19:35:35.286Z,75.99
2018-06-17T19:38:03.793Z,76.13
2018-06-17T19:40:32.658Z,76.40
2018-06-17T19:43:01.165Z,76.17
2018-06-17T19:45:29.926Z,75.98
2018-06-17T19:47:58.733Z,75.75
2018-06-17T19:50:32.405Z,76.10
2018-06-17T19:53:06.058Z,75.56
2018-06-17T19:55:39.821Z,75.80
2018-06-17T19:58:13.618Z,75.45
2018-06-17T20:00:43.790Z,75.44
2018-06-17T20:03:12.461Z,75.49
2018-06-17T20:05:40.909Z,75.25
2018-06-17T20:08:09.821Z,75.41
2018-06-17T20:10:38.405Z,75.93
2018-06-17T20:13:06.888Z,75.72
2018-06-17T20:15:35.468Z,75.98
2018-06-17T20:18:04.294Z,76.37
2018-06-17T20:20:32.939Z,76.27
2018-06-17T20:23:02.481Z,75.82
2018-06-17T20:25:30.945Z,75.71
2018-06-17T20:28:00.732Z,76.21
2018-06-17T20:30:29.217Z,76.01
2018-06-17T20:33:03.889Z,76.39
2018-06-17T20:37:42.082Z,76.31
2018-06-17T20:40:15.718Z,75.46
2018-06-17T20:42:49.690Z,75.58
2018-06-17T20:45:18.446Z,75.78
2018-06-17T20:47:47.212Z,76.53
2018-06-17T20:50:15.874Z,76.93
2018-06-17T20:52:44.835Z,77.07
2018-06-17T20:55:13.266Z,76.83
2018-06-17T20:57:41.763Z,76.98
2018-06-17T21:00:10.717Z,77.42
2018-06-17T21:02:39.141Z,77.47
2018-06-17T21:05:07.689Z,77.32
2018-06-17T21:07:36.403Z,77.01
2018-06-17T21:10:05.406Z,77.37
2018-06-17T21:12:33.901Z,77.06
2018-06-17T21:15:07.606Z,77.12
2018-06-17T21:17:36.093Z,77.00
2018-06-17T21:20:10.057Z,77.22
2018-06-17T21:22:43.996Z,77.11
2018-06-17T21:25:17.850Z,76.80
2018-06-17T21:27:50.342Z,76.87
2018-06-17T21:30:19.314Z,77.01
2018-06-17T21:32:48.346Z,77.10
2018-06-17T21:35:17.302Z,77.31
2018-06-17T21:37:45.780Z,77.26
2018-06-17T21:40:14.710Z,76.96
2018-06-17T21:42:49.981Z,77.11
2018-06-17T21:45:18.630Z,77.33
2018-06-17T21:47:47.045Z,76.90
2018-06-17T21:50:16.190Z,76.86
2018-06-17T21:52:45.200Z,76.45
2018-06-17T21:55:14.510Z,76.05
2018-06-17T21:57:43.059Z,75.71
2018-06-17T22:00:12.335Z,75.41
2018-06-17T22:02:43.713Z,75.12
2018-06-17T22:05:12.493Z,75.09
2018-06-17T22:07:46.170Z,74.20
2018-06-17T22:10:20.445Z,74.29
2018-06-17T22:12:54.082Z,74.06
2018-06-17T22:15:27.898Z,73.86
2018-06-17T22:17:56.714Z,74.09
2018-06-17T22:20:28.042Z,74.24
2018-06-17T22:22:56.518Z,74.01
2018-06-17T22:25:25.238Z,73.96
2018-06-17T22:27:53.657Z,74.14
2018-06-17T22:30:22.369Z,73.91
2018-06-17T22:32:51.645Z,73.77
2018-06-17T22:35:20.784Z,74.07
2018-06-17T22:37:49.253Z,73.89
2018-06-17T22:40:18.174Z,73.90
2018-06-17T22:42:47.126Z,74.37
2018-06-17T22:45:16.183Z,74.07
2018-06-17T22:47:49.861Z,73.84
2018-06-17T22:50:19.225Z,73.80
2018-06-17T22:52:58.908Z,73.86
2018-06-17T22:55:28.133Z,73.53
2018-06-17T22:58:02.042Z,73.64
2018-06-17T23:00:35.742Z,73.18
2018-06-17T23:03:09.557Z,73.31
2018-06-17T23:05:43.237Z,73.41
2018-06-17T23:08:17.396Z,73.23
2018-06-17T23:10:46.061Z,72.95
2018-06-17T23:13:14.833Z,73.15
2018-06-17T23:15:43.293Z,72.71
2018-06-17T23:18:11.793Z,72.63
2018-06-17T23:20:40.377Z,72.04
2018-06-17T23:23:09.593Z,72.18
2018-06-17T23:25:38.159Z,71.88
2018-06-17T23:28:06.689Z,72.15
2018-06-17T23:30:36.164Z,71.66
2018-06-17T23:33:04.870Z,71.50
2018-06-17T23:35:33.325Z,71.31
2018-06-17T23:38:02.457Z,71.06
2018-06-17T23:40:30.978Z,70.72
2018-06-17T23:43:00.054Z,70.58
2018-06-17T23:45:28.469Z,70.01
2018-06-17T23:48:02.670Z,69.61
2018-06-17T23:50:37.270Z,69.46
2018-06-17T23:53:10.766Z,69.79
2018-06-17T23:55:44.554Z,69.72
2018-06-17T23:58:13.318Z,69.67
